createdAt,value
2018-02-21T00:00:55.733Z,62.20
2018-02-21T00:01:55.699Z,61.20
2018-02-21T00:02:55.674Z,60.60
2018-02-21T00:03:55.640Z,60.70
2018-02-21T00:04:55.618Z,61.30
2018-02-21T00:05:55.588Z,60.70
2018-02-21T00:06:55.559Z,62.10
2018-02-21T00:07:55.525Z,61.50
2018-02-21T00:08:55.498Z,61.10
2018-02-21T00:09:55.470Z,62.10
2018-02-21T00:10:55.439Z,62.90
2018-02-21T00:11:55.408Z,61.90
2018-02-21T00:12:55.382Z,62.10
2018-02-21T00:13:55.356Z,62.40
2018-02-21T00:14:55.327Z,63.50
2018-02-21T00:15:55.294Z,64.00
2018-02-21T00:16:55.267Z,62.10
2018-02-21T00:17:55.240Z,62.00
2018-02-21T00:18:55.213Z,61.60
2018-02-21T00:19:55.177Z,61.60
2018-02-21T00:20:55.161Z,61.60
2018-02-21T00:21:55.122Z,62.60
2018-02-21T00:22:55.095Z,61.10
2018-02-21T00:23:55.063Z,61.70
2018-02-21T00:24:55.034Z,62.60
2018-02-21T00:25:55.009Z,62.10
2018-02-21T00:26:54.977Z,63.20
2018-02-21T00:27:54.944Z,62.50
2018-02-21T00:28:54.918Z,60.60
2018-02-21T00:29:54.892Z,61.50
2018-02-21T00:30:54.863Z,62.30
2018-02-21T00:31:54.833Z,62.10
2018-02-21T00:32:54.806Z,64.40
2018-02-21T00:33:54.776Z,61.90
2018-02-21T00:34:54.742Z,62.60
2018-02-21T00:35:54.719Z,60.80
2018-02-21T00:36:54.684Z,62.10
2018-02-21T00:37:54.661Z,64.50
2018-02-21T00:38:54.626Z,61.90
2018-02-21T00:39:54.601Z,63.90
2018-02-21T00:40:54.570Z,62.20
2018-02-21T00:41:54.542Z,62.80
2018-02-21T00:42:54.515Z,62.90
2018-02-21T00:43:54.483Z,62.40
2018-02-21T00:44:54.450Z,61.50
2018-02-21T00:45:54.426Z,60.70
2018-02-21T00:46:54.399Z,61.50
2018-02-21T00:47:54.365Z,60.90
2018-02-21T00:48:54.336Z,61.20
2018-02-21T00:49:54.311Z,62.10
2018-02-21T00:50:54.284Z,61.60
2018-02-21T00:51:54.251Z,60.90
2018-02-21T00:52:54.225Z,61.60
2018-02-21T00:53:54.190Z,61.70
2018-02-21T00:54:54.168Z,62.10
2018-02-21T00:55:54.131Z,61.90
2018-02-21T00:56:54.102Z,62.00
2018-02-21T00:57:54.079Z,62.50
2018-02-21T00:58:54.050Z,63.40
2018-02-21T00:59:54.018Z,62.10
2018-02-21T01:00:53.994Z,63.00
2018-02-21T01:01:53.956Z,63.20
2018-02-21T01:02:53.937Z,62.30
2018-02-21T01:03:53.907Z,64.80
2018-02-21T01:04:53.876Z,63.10
2018-02-21T01:05:53.841Z,63.50
2018-02-21T01:06:53.818Z,63.90
2018-02-21T01:07:53.784Z,63.80
2018-02-21T01:08:53.757Z,64.60
2018-02-21T01:09:53.732Z,61.40
2018-02-21T01:10:53.702Z,62.70
2018-02-21T01:11:53.666Z,61.50
2018-02-21T01:12:53.653Z,60.20
2018-02-21T01:13:53.611Z,59.80
2018-02-21T01:14:53.582Z,61.00
2018-02-21T01:15:53.557Z,61.60
2018-02-21T01:16:53.525Z,60.00
2018-02-21T01:17:53.500Z,59.90
2018-02-21T01:18:53.466Z,58.90
2018-02-21T01:19:53.442Z,60.20
2018-02-21T01:20:53.410Z,58.40
2018-02-21T01:21:53.385Z,58.40
2018-02-21T01:22:53.357Z,58.40
2018-02-21T01:23:53.326Z,60.30
2018-02-21T01:24:53.301Z,58.90
2018-02-21T01:25:53.265Z,60.20
2018-02-21T01:26:53.238Z,60.10
2018-02-21T01:27:53.211Z,61.70
2018-02-21T01:28:53.179Z,62.50
2018-02-21T01:29:53.154Z,61.30
2018-02-21T01:30:53.125Z,62.90
2018-02-21T01:31:53.092Z,62.90
2018-02-21T01:32:53.061Z,65.00
2018-02-21T01:33:53.040Z,63.50
2018-02-21T01:34:53.010Z,63.70
2018-02-21T01:35:52.977Z,63.50
2018-02-21T01:36:52.949Z,64.50
2018-02-21T01:37:52.925Z,65.00
2018-02-21T01:38:52.895Z,64.90
2018-02-21T01:39:52.862Z,65.30
2018-02-21T01:40:52.836Z,67.10
2018-02-21T01:41:52.810Z,67.40
2018-02-21T01:42:52.782Z,66.10
2018-02-21T01:43:52.748Z,64.40
2018-02-21T01:44:52.720Z,64.30
2018-02-21T01:45:52.692Z,63.90
2018-02-21T01:46:52.663Z,64.10
2018-02-21T01:47:52.628Z,64.20
2018-02-21T01:48:52.608Z,64.30
2018-02-21T01:49:52.575Z,63.30
2018-02-21T01:50:52.548Z,62.10
2018-02-21T01:51:52.515Z,61.80
2018-02-21T01:52:52.490Z,63.10
2018-02-21T01:53:52.459Z,62.00
2018-02-21T01:54:52.432Z,62.30
2018-02-21T01:55:52.424Z,63.10
2018-02-21T01:56:52.370Z,62.30
2018-02-21T01:57:52.346Z,61.70
2018-02-21T01:58:52.317Z,62.10
2018-02-21T01:59:52.285Z,62.10
2018-02-21T02:00:52.252Z,63.20
2018-02-21T02:01:52.229Z,62.30
2018-02-21T02:02:52.199Z,61.40
2018-02-21T02:03:52.172Z,61.20
2018-02-21T02:04:52.143Z,60.20
2018-02-21T02:05:52.115Z,59.20
2018-02-21T02:06:52.082Z,60.40
2018-02-21T02:07:52.058Z,59.70
2018-02-21T02:08:52.027Z,59.30
2018-02-21T02:09:52.001Z,59.80
2018-02-21T02:10:51.970Z,61.40
2018-02-21T02:11:51.938Z,60.20
2018-02-21T02:12:51.911Z,60.30
2018-02-21T02:13:51.884Z,61.60
2018-02-21T02:14:51.854Z,62.30
2018-02-21T02:15:51.821Z,60.70
2018-02-21T02:16:51.797Z,59.90
2018-02-21T02:17:51.763Z,60.60
2018-02-21T02:18:51.739Z,61.80
2018-02-21T02:19:51.704Z,62.40
2018-02-21T02:20:51.673Z,60.20
2018-02-21T02:21:51.652Z,62.10
2018-02-21T02:22:51.623Z,60.40
2018-02-21T02:23:51.590Z,61.90
2018-02-21T02:24:51.563Z,59.70
2018-02-21T02:25:51.536Z,59.30
2018-02-21T02:26:51.503Z,60.30
2018-02-21T02:27:51.476Z,57.60
2018-02-21T02:28:51.459Z,57.50
2018-02-21T02:29:51.419Z,58.70
2018-02-21T02:30:51.386Z,58.20
2018-02-21T02:31:51.363Z,58.70
2018-02-21T02:32:51.326Z,58.80
2018-02-21T02:33:51.301Z,59.50
2018-02-21T02:34:51.271Z,59.90
2018-02-21T02:35:51.244Z,59.40
2018-02-21T02:36:51.213Z,61.10
2018-02-21T02:37:51.184Z,62.30
2018-02-21T02:38:51.155Z,61.40
2018-02-21T02:39:51.133Z,61.10
2018-02-21T02:40:51.098Z,60.30
2018-02-21T02:41:51.067Z,60.60
2018-02-21T02:42:51.040Z,61.00
2018-02-21T02:43:51.010Z,61.20
2018-02-21T02:44:50.980Z,62.10
2018-02-21T02:45:50.953Z,63.20
2018-02-21T02:46:50.927Z,60.00
2018-02-21T02:47:50.890Z,60.10
2018-02-21T02:48:50.862Z,61.90
2018-02-21T02:49:50.835Z,60.40
2018-02-21T02:50:50.806Z,61.40
2018-02-21T02:51:50.775Z,61.80
2018-02-21T02:52:50.743Z,60.40
2018-02-21T02:53:50.742Z,60.70
2018-02-21T02:54:50.765Z,62.10
2018-02-21T02:55:50.659Z,60.30
2018-02-21T02:56:50.630Z,61.10
2018-02-21T02:57:50.604Z,62.10
2018-02-21T02:58:50.571Z,60.20
2018-02-21T02:59:50.542Z,60.70
2018-02-21T03:00:50.514Z,60.10
2018-02-21T03:01:50.487Z,60.40
2018-02-21T03:02:50.457Z,58.90
2018-02-21T03:03:50.422Z,58.50
2018-02-21T03:04:50.399Z,59.10
2018-02-21T03:05:50.376Z,61.10
2018-02-21T03:06:50.344Z,61.00
2018-02-21T03:07:50.310Z,61.30
2018-02-21T03:08:50.278Z,60.60
2018-02-21T03:09:50.252Z,61.60
2018-02-21T03:10:50.222Z,61.20
2018-02-21T03:11:50.193Z,61.00
2018-02-21T03:12:50.162Z,60.70
2018-02-21T03:13:50.136Z,60.20
2018-02-21T03:14:50.108Z,60.20
2018-02-21T03:15:50.079Z,59.50
2018-02-21T03:16:50.046Z,60.40
2018-02-21T03:17:50.025Z,62.30
2018-02-21T03:18:49.987Z,61.50
2018-02-21T03:19:49.961Z,60.00
2018-02-21T03:20:49.931Z,61.80
2018-02-21T03:21:49.903Z,61.80
2018-02-21T03:22:49.874Z,62.20
2018-02-21T03:23:49.840Z,62.30
2018-02-21T03:24:49.816Z,62.20
2018-02-21T03:25:49.782Z,63.50
2018-02-21T03:26:49.757Z,63.90
2018-02-21T03:27:49.725Z,65.30
2018-02-21T03:28:49.698Z,65.50
2018-02-21T03:29:49.665Z,63.10
2018-02-21T03:30:49.638Z,67.20
2018-02-21T03:31:49.612Z,66.80
2018-02-21T03:32:49.582Z,65.70
2018-02-21T03:33:49.560Z,65.90
2018-02-21T03:34:49.527Z,64.40
2018-02-21T03:35:49.493Z,64.50
2018-02-21T03:36:49.462Z,67.00
2018-02-21T03:37:49.435Z,67.00
2018-02-21T03:38:49.407Z,66.80
2018-02-21T03:39:49.380Z,65.20
2018-02-21T03:40:49.347Z,65.70
2018-02-21T03:41:49.322Z,65.50
2018-02-21T03:42:49.292Z,67.10
2018-02-21T03:43:49.261Z,69.40
2018-02-21T03:44:49.230Z,70.10
2018-02-21T03:45:49.205Z,67.80
2018-02-21T03:46:49.171Z,68.20
2018-02-21T03:47:49.145Z,68.40
2018-02-21T03:48:49.114Z,68.50
2018-02-21T03:49:49.091Z,68.70
2018-02-21T03:50:49.061Z,66.70
2018-02-21T03:51:49.028Z,70.10
2018-02-21T03:52:49.002Z,67.80
2018-02-21T03:53:48.976Z,68.60
2018-02-21T03:54:48.940Z,69.00
2018-02-21T03:55:48.918Z,68.50
2018-02-21T03:56:48.895Z,69.10
2018-02-21T03:57:48.861Z,71.60
2018-02-21T03:58:48.824Z,70.90
2018-02-21T03:59:48.802Z,71.90
2018-02-21T04:00:48.767Z,71.60
2018-02-21T04:01:48.745Z,71.40
2018-02-21T04:02:48.711Z,71.90
2018-02-21T04:03:48.682Z,72.70
2018-02-21T04:04:48.654Z,71.30
2018-02-21T04:05:48.628Z,72.20
2018-02-21T04:06:48.601Z,71.60
2018-02-21T04:07:48.569Z,71.40
2018-02-21T04:08:48.541Z,73.10
2018-02-21T04:09:48.509Z,69.90
2018-02-21T04:10:48.496Z,71.40
2018-02-21T04:11:48.455Z,73.80
2018-02-21T04:12:48.427Z,72.10
2018-02-21T04:13:48.394Z,71.20
2018-02-21T04:14:48.371Z,71.90
2018-02-21T04:15:48.336Z,69.20
2018-02-21T04:16:48.311Z,70.40
2018-02-21T04:17:48.285Z,70.40
2018-02-21T04:18:48.254Z,70.10
2018-02-21T04:19:48.226Z,70.90
2018-02-21T04:20:48.198Z,70.50
2018-02-21T04:21:48.171Z,73.00
2018-02-21T04:22:48.139Z,69.80
2018-02-21T04:23:48.111Z,70.60
2018-02-21T04:24:48.083Z,71.70
2018-02-21T04:25:48.052Z,70.90
2018-02-21T04:26:48.030Z,72.00
2018-02-21T04:27:47.994Z,71.30
2018-02-21T04:28:47.968Z,70.50
2018-02-21T04:29:47.940Z,71.90
2018-02-21T04:30:47.911Z,70.50
2018-02-21T04:31:47.878Z,72.20
2018-02-21T04:32:47.850Z,71.70
2018-02-21T04:33:47.825Z,71.00
2018-02-21T04:34:47.795Z,70.70
2018-02-21T04:35:47.769Z,70.10
2018-02-21T04:36:47.741Z,72.00
2018-02-21T04:37:47.711Z,71.90
2018-02-21T04:38:47.682Z,71.70
2018-02-21T04:39:47.649Z,72.60
2018-02-21T04:40:47.624Z,71.90
2018-02-21T04:41:47.596Z,75.00
2018-02-21T04:42:47.565Z,72.70
2018-02-21T04:43:47.538Z,74.00
2018-02-21T04:44:47.514Z,72.70
2018-02-21T04:45:47.480Z,71.40
2018-02-21T04:46:47.448Z,71.70
2018-02-21T04:47:47.426Z,72.40
2018-02-21T04:48:47.401Z,72.60
2018-02-21T04:49:47.365Z,73.00
2018-02-21T04:50:47.336Z,71.40
2018-02-21T04:51:47.308Z,74.00
2018-02-21T04:52:47.279Z,70.70
2018-02-21T04:53:47.255Z,73.20
2018-02-21T04:54:47.225Z,73.40
2018-02-21T04:55:47.194Z,73.60
2018-02-21T04:56:47.170Z,72.70
2018-02-21T04:57:47.140Z,71.80
2018-02-21T04:58:47.111Z,73.20
2018-02-21T04:59:47.079Z,70.80
2018-02-21T05:00:47.054Z,73.20
2018-02-21T05:01:47.029Z,72.30
2018-02-21T05:02:47.000Z,74.60
2018-02-21T05:03:46.966Z,74.10
2018-02-21T05:04:46.938Z,72.80
2018-02-21T05:05:46.913Z,72.90
2018-02-21T05:06:46.881Z,71.60
2018-02-21T05:07:46.857Z,73.90
2018-02-21T05:08:46.822Z,72.60
2018-02-21T05:09:46.798Z,74.80
2018-02-21T05:10:46.767Z,73.30
2018-02-21T05:11:46.742Z,71.90
2018-02-21T05:12:46.711Z,73.70
2018-02-21T05:13:46.685Z,74.70
2018-02-21T05:14:46.652Z,74.30
2018-02-21T05:15:46.626Z,74.10
2018-02-21T05:16:46.598Z,76.20
2018-02-21T05:17:46.569Z,75.00
2018-02-21T05:18:46.542Z,75.60
2018-02-21T05:19:46.512Z,79.80
2018-02-21T05:20:46.484Z,76.60
2018-02-21T05:21:46.451Z,77.80
2018-02-21T05:22:46.428Z,78.70
2018-02-21T05:23:46.397Z,79.50
2018-02-21T05:24:46.367Z,81.90
2018-02-21T05:25:46.341Z,80.80
2018-02-21T05:26:46.314Z,82.10
2018-02-21T05:27:46.282Z,81.60
2018-02-21T05:28:46.251Z,82.20
2018-02-21T05:29:46.225Z,81.60
2018-02-21T05:30:46.197Z,83.40
2018-02-21T05:31:46.164Z,82.60
2018-02-21T05:32:46.143Z,84.40
2018-02-21T05:33:46.108Z,85.50
2018-02-21T05:34:46.084Z,83.70
2018-02-21T05:35:46.051Z,85.90
2018-02-21T05:36:46.028Z,86.80
2018-02-21T05:37:45.994Z,86.40
2018-02-21T05:38:45.972Z,86.80
2018-02-21T05:39:45.937Z,85.50
2018-02-21T05:40:45.906Z,85.50
2018-02-21T05:41:45.882Z,86.60
2018-02-21T05:42:45.852Z,87.40
2018-02-21T05:43:45.825Z,87.40
2018-02-21T05:44:45.792Z,85.50
2018-02-21T05:45:45.768Z,86.90
2018-02-21T05:46:45.735Z,84.80
2018-02-21T05:47:45.710Z,85.50
2018-02-21T05:48:45.677Z,87.70
2018-02-21T05:49:45.654Z,87.70
2018-02-21T05:50:45.623Z,89.50
2018-02-21T05:51:45.599Z,89.80
2018-02-21T05:52:45.560Z,89.50
2018-02-21T05:53:45.540Z,89.40
2018-02-21T05:54:45.506Z,86.80
2018-02-21T05:55:45.475Z,88.90
2018-02-21T05:56:45.448Z,88.40
2018-02-21T05:57:45.418Z,89.20
2018-02-21T05:58:45.392Z,89.60
2018-02-21T05:59:45.363Z,90.30
2018-02-21T06:00:45.333Z,90.50
2018-02-21T06:01:45.302Z,89.70
2018-02-21T06:02:45.272Z,91.10
2018-02-21T06:03:45.246Z,93.10
2018-02-21T06:04:45.216Z,92.10
2018-02-21T06:05:45.189Z,93.20
2018-02-21T06:06:45.155Z,94.20
2018-02-21T06:07:45.129Z,92.20
2018-02-21T06:08:45.098Z,94.60
2018-02-21T06:09:45.074Z,94.20
2018-02-21T06:10:45.044Z,90.50
2018-02-21T06:11:45.014Z,92.10
2018-02-21T06:12:44.986Z,93.70
2018-02-21T06:13:44.969Z,96.20
2018-02-21T06:14:44.924Z,95.20
2018-02-21T06:15:44.901Z,94.90
2018-02-21T06:16:44.866Z,95.90
2018-02-21T06:17:44.841Z,97.20
2018-02-21T06:18:44.815Z,96.30
2018-02-21T06:19:44.781Z,95.00
2018-02-21T06:20:44.754Z,96.30
2018-02-21T06:21:44.723Z,96.70
2018-02-21T06:22:44.695Z,96.70
2018-02-21T06:23:44.664Z,95.70
2018-02-21T06:24:44.633Z,95.10
2018-02-21T06:25:44.607Z,94.80
2018-02-21T06:26:44.582Z,94.90
2018-02-21T06:27:44.550Z,93.80
2018-02-21T06:28:44.520Z,95.70
2018-02-21T06:29:44.491Z,95.30
2018-02-21T06:30:44.462Z,99.30
2018-02-21T06:31:44.428Z,97.80
2018-02-21T06:32:44.401Z,94.00
2018-02-21T06:33:44.380Z,95.80
2018-02-21T06:34:44.347Z,95.40
2018-02-21T06:35:44.315Z,94.30
2018-02-21T06:36:44.295Z,95.20
2018-02-21T06:37:44.258Z,94.80
2018-02-21T06:38:44.234Z,95.40
2018-02-21T06:39:44.196Z,95.60
2018-02-21T06:40:44.167Z,94.60
2018-02-21T06:41:44.141Z,96.10
2018-02-21T06:42:44.112Z,94.90
2018-02-21T06:43:44.078Z,97.90
2018-02-21T06:44:44.054Z,95.20
2018-02-21T06:45:44.022Z,98.60
2018-02-21T06:46:44.001Z,95.20
2018-02-21T06:47:43.964Z,98.10
2018-02-21T06:48:43.935Z,96.10
2018-02-21T06:49:43.912Z,94.00
2018-02-21T06:50:43.882Z,97.50
2018-02-21T06:51:43.863Z,97.30
2018-02-21T06:52:43.820Z,99.10
2018-02-21T06:53:43.789Z,99.60
2018-02-21T06:54:43.763Z,99.30
2018-02-21T06:55:43.733Z,96.70
2018-02-21T06:56:43.793Z,96.90
2018-02-21T06:57:46.097Z,98.40
2018-02-21T06:58:43.647Z,96.90
2018-02-21T06:59:43.617Z,100.20
2018-02-21T07:00:43.584Z,98.40
2018-02-21T07:01:43.559Z,96.20
2018-02-21T07:02:43.529Z,98.80
2018-02-21T07:03:43.497Z,94.80
2018-02-21T07:04:43.470Z,95.90
2018-02-21T07:05:43.439Z,95.00
2018-02-21T07:06:43.443Z,96.30
2018-02-21T07:07:43.393Z,96.70
2018-02-21T07:08:43.353Z,96.90
2018-02-21T07:09:43.325Z,97.40
2018-02-21T07:10:43.297Z,97.40
2018-02-21T07:11:43.266Z,96.40
2018-02-21T07:12:43.232Z,94.20
2018-02-21T07:13:43.209Z,95.70
2018-02-21T07:14:43.178Z,96.20
2018-02-21T07:15:43.146Z,96.00
2018-02-21T07:16:43.119Z,94.50
2018-02-21T07:17:43.090Z,93.50
2018-02-21T07:18:43.062Z,94.80
2018-02-21T07:19:43.033Z,95.50
2018-02-21T07:20:43.002Z,94.70
2018-02-21T07:21:42.976Z,95.00
2018-02-21T07:22:42.962Z,93.70
2018-02-21T07:23:42.917Z,94.60
2018-02-21T07:24:42.896Z,96.70
2018-02-21T07:25:42.858Z,96.90
2018-02-21T07:26:42.826Z,97.30
2018-02-21T07:27:42.803Z,95.50
2018-02-21T07:28:42.772Z,96.60
2018-02-21T07:29:42.739Z,95.60
2018-02-21T07:30:42.710Z,92.50
2018-02-21T07:31:42.685Z,97.90
2018-02-21T07:32:42.656Z,96.50
2018-02-21T07:33:42.628Z,96.90
2018-02-21T07:34:42.593Z,94.20
2018-02-21T07:35:42.565Z,95.40
2018-02-21T07:36:42.541Z,96.70
2018-02-21T07:37:42.507Z,94.40
2018-02-21T07:38:42.478Z,94.70
2018-02-21T07:39:42.451Z,93.40
2018-02-21T07:40:42.419Z,89.70
2018-02-21T07:41:42.395Z,91.60
2018-02-21T07:42:42.362Z,92.10
2018-02-21T07:43:42.335Z,90.20
2018-02-21T07:44:42.301Z,89.70
2018-02-21T07:45:42.283Z,89.80
2018-02-21T07:46:42.244Z,88.80
2018-02-21T07:47:42.218Z,89.50
2018-02-21T07:48:42.187Z,85.90
2018-02-21T07:49:42.160Z,87.30
2018-02-21T07:50:42.133Z,85.70
2018-02-21T07:51:42.098Z,86.90
2018-02-21T07:52:42.074Z,86.60
2018-02-21T07:53:42.046Z,84.30
2018-02-21T07:54:42.016Z,84.70
2018-02-21T07:55:41.989Z,86.60
2018-02-21T07:56:41.961Z,87.60
2018-02-21T07:57:41.926Z,88.60
2018-02-21T07:58:41.900Z,88.20
2018-02-21T07:59:41.865Z,89.60
2018-02-21T08:00:41.841Z,86.80
2018-02-21T08:01:41.859Z,85.80
2018-02-21T08:02:41.853Z,87.50
2018-02-21T08:03:41.767Z,87.40
2018-02-21T08:04:41.722Z,87.20
2018-02-21T08:05:41.697Z,86.80
2018-02-21T08:06:41.673Z,86.00
2018-02-21T08:07:41.638Z,87.10
2018-02-21T08:08:41.607Z,85.10
2018-02-21T08:09:41.581Z,89.20
2018-02-21T08:10:41.604Z,83.80
2018-02-21T08:11:41.554Z,86.60
2018-02-21T08:12:41.498Z,85.30
2018-02-21T08:13:41.459Z,84.80
2018-02-21T08:14:41.488Z,87.20
2018-02-21T08:15:41.450Z,89.10
2018-02-21T08:16:41.376Z,86.90
2018-02-21T08:17:41.387Z,87.20
2018-02-21T08:18:41.366Z,87.70
2018-02-21T08:19:41.329Z,86.20
2018-02-21T08:20:41.262Z,85.40
2018-02-21T08:21:41.268Z,86.30
2018-02-21T08:22:41.260Z,86.30
2018-02-21T08:23:41.209Z,86.30
2018-02-21T08:24:41.180Z,88.80
2018-02-21T08:25:41.152Z,85.70
2018-02-21T08:26:41.087Z,85.90
2018-02-21T08:27:41.077Z,87.70
2018-02-21T08:28:41.028Z,85.00
2018-02-21T08:29:41.022Z,85.50
2018-02-21T08:30:40.981Z,84.20
2018-02-21T08:31:40.936Z,87.10
2018-02-21T08:32:40.918Z,85.80
2018-02-21T08:33:40.890Z,84.80
2018-02-21T08:34:40.886Z,85.40
2018-02-21T08:35:40.824Z,84.80
2018-02-21T08:36:40.797Z,87.20
2018-02-21T08:37:40.770Z,87.20
2018-02-21T08:38:40.743Z,85.90
2018-02-21T08:39:40.708Z,84.10
2018-02-21T08:40:40.705Z,87.20
2018-02-21T08:41:40.652Z,85.50
2018-02-21T08:42:40.629Z,86.10
2018-02-21T08:43:40.594Z,85.80
2018-02-21T08:44:40.570Z,84.00
2018-02-21T08:45:40.541Z,86.10
2018-02-21T08:46:40.516Z,84.10
2018-02-21T08:47:40.479Z,86.00
2018-02-21T08:48:40.449Z,84.70
2018-02-21T08:49:40.451Z,85.50
2018-02-21T08:50:40.391Z,86.20
2018-02-21T08:51:40.362Z,85.60
2018-02-21T08:52:40.335Z,84.00
2018-02-21T08:53:40.315Z,83.60
2018-02-21T08:54:40.282Z,82.50
2018-02-21T08:55:40.248Z,84.00
2018-02-21T08:56:40.223Z,85.00
2018-02-21T08:57:40.201Z,81.80
2018-02-21T08:58:40.162Z,81.50
2018-02-21T08:59:40.137Z,81.90
2018-02-21T09:00:40.106Z,84.50
2018-02-21T09:01:40.079Z,84.20
2018-02-21T09:02:40.050Z,82.50
2018-02-21T09:03:40.026Z,83.90
2018-02-21T09:04:39.993Z,84.80
2018-02-21T09:05:39.965Z,84.90
2018-02-21T09:06:39.936Z,85.20
2018-02-21T09:07:39.905Z,84.80
2018-02-21T09:08:39.873Z,84.90
2018-02-21T09:09:39.850Z,82.00
2018-02-21T09:10:39.814Z,83.10
2018-02-21T09:11:39.794Z,85.00
2018-02-21T09:12:39.764Z,82.40
2018-02-21T09:13:39.734Z,81.60
2018-02-21T09:14:39.704Z,82.10
2018-02-21T09:15:39.678Z,82.30
2018-02-21T09:16:39.762Z,83.30
2018-02-21T09:17:39.621Z,84.00
2018-02-21T09:18:39.586Z,82.70
2018-02-21T09:19:39.563Z,84.00
2018-02-21T09:20:39.536Z,83.80
2018-02-21T09:21:39.503Z,84.80
2018-02-21T09:22:39.504Z,79.90
2018-02-21T09:23:39.502Z,80.80
2018-02-21T09:24:39.417Z,80.10
2018-02-21T09:25:39.419Z,80.90
2018-02-21T09:26:39.405Z,79.90
2018-02-21T09:27:39.382Z,79.70
2018-02-21T09:28:39.307Z,81.20
2018-02-21T09:29:39.317Z,78.10
2018-02-21T09:30:39.295Z,78.90
2018-02-21T09:31:39.260Z,79.00
2018-02-21T09:32:39.229Z,78.40
2018-02-21T09:33:39.205Z,76.50
2018-02-21T09:34:39.175Z,76.40
2018-02-21T09:35:39.139Z,76.20
2018-02-21T09:36:39.111Z,75.00
2018-02-21T09:37:39.089Z,74.20
2018-02-21T09:38:39.065Z,73.20
2018-02-21T09:39:39.028Z,74.90
2018-02-21T09:40:38.996Z,72.30
2018-02-21T09:41:38.935Z,72.10
2018-02-21T09:42:38.912Z,72.80
2018-02-21T09:43:38.882Z,74.50
2018-02-21T09:44:38.846Z,74.20
2018-02-21T09:45:38.826Z,74.60
2018-02-21T09:46:38.793Z,74.40
2018-02-21T09:47:38.761Z,70.80
2018-02-21T09:48:38.735Z,70.00
2018-02-21T09:49:38.704Z,70.60
2018-02-21T09:50:38.678Z,71.00
2018-02-21T09:51:38.648Z,68.80
2018-02-21T09:52:38.623Z,66.90
2018-02-21T09:53:38.594Z,67.40
2018-02-21T09:54:38.563Z,66.00
2018-02-21T09:55:38.540Z,63.50
2018-02-21T09:56:38.507Z,63.60
2018-02-21T09:57:38.480Z,60.30
2018-02-21T09:58:38.452Z,59.80
2018-02-21T09:59:38.420Z,58.40
2018-02-21T10:00:38.393Z,58.60
2018-02-21T10:01:38.370Z,59.60
2018-02-21T10:02:38.336Z,59.50
2018-02-21T10:03:38.310Z,56.30
2018-02-21T10:04:38.275Z,56.80
2018-02-21T10:05:38.254Z,56.00
2018-02-21T10:06:38.224Z,55.40
2018-02-21T10:07:38.196Z,56.00
2018-02-21T10:08:38.165Z,56.00
2018-02-21T10:09:38.140Z,55.30
2018-02-21T10:10:38.111Z,54.00
2018-02-21T10:11:38.079Z,54.80
2018-02-21T10:12:38.055Z,52.10
2018-02-21T10:13:38.028Z,52.20
2018-02-21T10:14:37.998Z,53.40
2018-02-21T10:15:37.971Z,54.80
2018-02-21T10:16:37.938Z,55.40
2018-02-21T10:17:37.914Z,55.20
2018-02-21T10:18:37.882Z,53.80
2018-02-21T10:19:37.918Z,53.80
2018-02-21T10:20:37.838Z,53.50
2018-02-21T10:21:37.796Z,53.30
2018-02-21T10:22:37.769Z,53.60
2018-02-21T10:23:37.743Z,54.00
2018-02-21T10:24:37.716Z,52.30
2018-02-21T10:25:37.685Z,52.10
2018-02-21T10:26:37.655Z,51.60
2018-02-21T10:27:37.625Z,52.40
2018-02-21T10:28:37.602Z,51.50
2018-02-21T10:29:37.575Z,50.10
2018-02-21T10:30:37.543Z,51.20
2018-02-21T10:31:37.516Z,50.00
2018-02-21T10:32:37.487Z,50.90
2018-02-21T10:33:37.462Z,50.60
2018-02-21T10:34:37.447Z,49.60
2018-02-21T10:35:37.399Z,46.60
2018-02-21T10:36:37.374Z,48.60
2018-02-21T10:37:37.347Z,47.60
2018-02-21T10:38:37.320Z,47.80
2018-02-21T10:39:37.288Z,46.20
2018-02-21T10:40:37.261Z,48.20
2018-02-21T10:41:37.237Z,46.30
2018-02-21T10:42:37.278Z,47.40
2018-02-21T10:43:37.176Z,46.80
2018-02-21T10:44:37.149Z,47.00
2018-02-21T10:45:37.132Z,46.70
2018-02-21T10:46:37.093Z,45.80
2018-02-21T10:47:37.061Z,47.30
2018-02-21T10:48:37.032Z,48.30
2018-02-21T10:49:37.009Z,48.40
2018-02-21T10:50:36.980Z,48.30
2018-02-21T10:51:36.949Z,48.10
2018-02-21T10:52:36.922Z,48.40
2018-02-21T10:53:36.891Z,46.80
2018-02-21T10:54:36.869Z,46.50
2018-02-21T10:55:36.832Z,46.40
2018-02-21T10:56:36.810Z,46.70
2018-02-21T10:57:36.777Z,47.50
2018-02-21T10:58:36.751Z,46.80
2018-02-21T10:59:36.736Z,45.20
2018-02-21T11:00:36.695Z,46.20
2018-02-21T11:01:36.671Z,42.30
2018-02-21T11:02:36.641Z,41.90
2018-02-21T11:03:36.610Z,41.70
2018-02-21T11:04:36.580Z,41.30
2018-02-21T11:05:36.556Z,41.80
2018-02-21T11:06:36.524Z,43.00
2018-02-21T11:07:36.497Z,43.70
2018-02-21T11:08:36.467Z,44.20
2018-02-21T11:09:36.444Z,45.10
2018-02-21T11:10:36.411Z,44.20
2018-02-21T11:11:36.386Z,43.80
2018-02-21T11:12:36.354Z,44.30
2018-02-21T11:13:36.329Z,45.40
2018-02-21T11:14:36.301Z,43.20
2018-02-21T11:15:36.276Z,42.70
2018-02-21T11:16:36.259Z,42.70
2018-02-21T11:17:36.213Z,42.20
2018-02-21T11:18:36.210Z,42.90
2018-02-21T11:19:36.160Z,41.90
2018-02-21T11:20:36.134Z,41.70
2018-02-21T11:21:36.101Z,42.40
2018-02-21T11:22:36.071Z,42.00
2018-02-21T11:23:36.060Z,41.90
2018-02-21T11:24:36.017Z,42.40
2018-02-21T11:25:35.989Z,42.10
2018-02-21T11:26:35.960Z,40.90
2018-02-21T11:27:35.947Z,40.80
2018-02-21T11:28:35.908Z,38.20
2018-02-21T11:29:35.876Z,38.70
2018-02-21T11:30:35.848Z,37.40
2018-02-21T11:31:35.822Z,37.20
2018-02-21T11:32:35.794Z,37.40
2018-02-21T11:33:35.763Z,37.70
2018-02-21T11:34:36.130Z,37.60
2018-02-21T11:35:35.843Z,36.80
2018-02-21T11:36:35.685Z,36.50
2018-02-21T11:37:35.681Z,37.50
2018-02-21T11:38:35.626Z,36.40
2018-02-21T11:39:35.594Z,36.90
2018-02-21T11:40:35.569Z,37.10
2018-02-21T11:41:35.544Z,38.70
2018-02-21T11:42:35.514Z,37.80
2018-02-21T11:43:35.482Z,37.40
2018-02-21T11:44:35.454Z,38.90
2018-02-21T11:45:35.430Z,37.50
2018-02-21T11:46:35.401Z,36.90
2018-02-21T11:47:35.368Z,35.90
2018-02-21T11:48:35.348Z,35.90
2018-02-21T11:49:35.364Z,35.20
2018-02-21T11:50:35.330Z,37.10
2018-02-21T11:51:35.261Z,35.70
2018-02-21T11:52:35.235Z,35.40
2018-02-21T11:53:35.258Z,35.00
2018-02-21T11:54:35.176Z,35.60
2018-02-21T11:55:35.149Z,35.40
2018-02-21T11:56:35.119Z,35.30
2018-02-21T11:57:35.140Z,34.70
2018-02-21T11:58:35.065Z,34.60
2018-02-21T11:59:35.084Z,34.30
2018-02-21T12:00:35.007Z,34.80
2018-02-21T12:01:34.983Z,34.60
2018-02-21T12:02:34.951Z,35.60
2018-02-21T12:03:34.927Z,34.10
2018-02-21T12:04:34.957Z,33.90
2018-02-21T12:05:34.866Z,33.40
2018-02-21T12:06:34.887Z,31.60
2018-02-21T12:07:34.855Z,33.10
2018-02-21T12:08:34.848Z,32.20
2018-02-21T12:09:34.799Z,32.60
2018-02-21T12:10:34.749Z,34.10
2018-02-21T12:11:34.717Z,33.30
2018-02-21T12:12:34.675Z,33.80
2018-02-21T12:13:34.660Z,33.90
2018-02-21T12:14:34.619Z,33.20
2018-02-21T12:15:34.597Z,34.40
2018-02-21T12:16:34.584Z,35.90
2018-02-21T12:17:34.533Z,34.60
2018-02-21T12:18:34.506Z,35.70
2018-02-21T12:19:34.480Z,34.50
2018-02-21T12:20:34.445Z,33.00
2018-02-21T12:21:34.456Z,33.80
2018-02-21T12:22:34.523Z,34.20
2018-02-21T12:23:34.371Z,34.70
2018-02-21T12:24:34.339Z,36.60
2018-02-21T12:25:34.313Z,37.10
2018-02-21T12:26:34.283Z,39.40
2018-02-21T12:27:34.257Z,37.40
2018-02-21T12:28:34.230Z,38.20
2018-02-21T12:29:34.202Z,37.30
2018-02-21T12:30:34.175Z,38.40
2018-02-21T12:31:34.144Z,38.30
2018-02-21T12:32:34.121Z,38.70
2018-02-21T12:33:34.100Z,37.80
2018-02-21T12:34:34.060Z,38.50
2018-02-21T12:35:34.036Z,38.00
2018-02-21T12:36:34.010Z,36.60
2018-02-21T12:37:33.976Z,36.40
2018-02-21T12:38:33.950Z,36.10
2018-02-21T12:39:33.927Z,35.90
2018-02-21T12:40:33.896Z,34.80
2018-02-21T12:41:33.867Z,35.10
2018-02-21T12:42:33.844Z,35.20
2018-02-21T12:43:33.810Z,35.80
2018-02-21T12:44:33.783Z,36.40
2018-02-21T12:45:33.760Z,35.90
2018-02-21T12:46:33.731Z,36.30
2018-02-21T12:47:33.698Z,35.60
2018-02-21T12:48:33.673Z,36.30
2018-02-21T12:49:33.646Z,35.70
2018-02-21T12:50:33.620Z,36.10
2018-02-21T12:51:33.588Z,35.60
2018-02-21T12:52:33.560Z,35.00